Pagina principale
METAR-TAF:

METAR-TAF

Aeroporti :

Aeroporto di Groznyj-Severnyj

Groznyj, Russia

latitudine: 43-23-18N, longitudine: 045-41-59E, altezza: 167 m

Osservazione

Il bollettino è stato emesso 34 minuti fa, alle 01:30 UTC
Vento 4 kt da ovest/sud-ovest, variando fra sud-ovest e ovest/nord-ovest
Temperature 5°C
Umidità 52%
Pressione 1017 hPa
Visibilità 10 km o più
nessuna nube inferiore a 1500 m e nessun cumulonembo

METAR: URMG 250130Z 25002MPS 220V290 CAVOK 05/M04 Q1017 R26/090070 NOSIG RMK QFE748/0997

Ora: 05:04 (02:04 UTC)

Previsione

Il bollettino è stato emesso 3 ore e 4 minuti fa, alle 23:00 UTC
Previsione valida dal 25 alle 00 UTC al 25 alle 09 UTC
Vento 2 kt da direzioni variabili
Visibilità 10 km o più
nessuna nube inferiore a 1500 m e nessun cumulonembo
Evoluzione graduale
dal 25 alle 06 UTC al 25 alle 08 UTC
Vento 6 kt da ovest con raffiche fino a 16 kt

TAF: URMG 242300Z 2500/2509 VRB01MPS CAVOK BECMG 2506/2508 28003G08MPS

Osservazioni e previsioni meteorologiche di più di 4000 aeroporti (messaggi METAR e TAF).

Le stazioni disponibili sono rappresentate dai dischi gialli e rossi sulla carta.

Puntare il mouse per vedere il nome della stazione.

Clicca sopra per visualizzare le osservazioni e previsioni meteorologiche.

Per cambiare la mappa : fare clic sui pulsanti verdi con una croce nera per ingrandire, il pulsante verde con un trattino per diminuire, o sulla freccia verde per le mappe adiacenti.


METAR-TAF: